Swiss Alp, Texas
Current Conditions -  °F | °C
As of 9:55 PM on Sunday 23 Nov 2014 (Local Time) from K3T5 Reporting Station
Clear Clear  
Wind Chill: 67°   Ceiling: Unl
Heat Index: 67°   Visibility: 10mi
Dew Point: 50°   Wind: 10mph
Humidity: 54%   Direction: 300°WNW
Pressure: 29.69"   Gusts: 21mph
Location:  29.7125°N, 96.9231°W
Report Text: K3T5 240355Z AUTO 30009G18KT 270V340 10SM CLR 19/10 A2969 RMK AO2 T01920098
Loading
Personal Weather Stations






























Interactive Weather Map New forecast layout! Learn more

10-Day Weather Forecast

Advertisements
Track Severe Weather on mobile